sensor_id;sensor_type;location;lat;lon;timestamp;P1;durP1;ratioP1;P2;durP2;ratioP2
37407;SDS011;24866;50.248;8.252;2023-01-09T00:01:21;6.03;;;5.18;;
37407;SDS011;24866;50.248;8.252;2023-01-09T00:03:55;6.20;;;4.75;;
37407;SDS011;24866;50.248;8.252;2023-01-09T00:06:27;5.15;;;3.88;;
37407;SDS011;24866;50.248;8.252;2023-01-09T00:08:57;4.23;;;3.17;;
37407;SDS011;24866;50.248;8.252;2023-01-09T00:11:28;4.40;;;3.45;;
37407;SDS011;24866;50.248;8.252;2023-01-09T00:13:58;4.20;;;2.80;;
37407;SDS011;24866;50.248;8.252;2023-01-09T00:16:29;4.38;;;3.15;;
37407;SDS011;24866;50.248;8.252;2023-01-09T00:18:59;3.78;;;2.55;;
37407;SDS011;24866;50.248;8.252;2023-01-09T00:21:31;5.05;;;2.95;;
37407;SDS011;24866;50.248;8.252;2023-01-09T00:24:01;4.50;;;2.80;;
37407;SDS011;24866;50.248;8.252;2023-01-09T00:26:31;3.08;;;2.03;;
37407;SDS011;24866;50.248;8.252;2023-01-09T00:29:02;2.80;;;1.58;;
37407;SDS011;24866;50.248;8.252;2023-01-09T00:31:32;2.30;;;0.90;;
37407;SDS011;24866;50.248;8.252;2023-01-09T00:34:03;1.90;;;1.02;;
37407;SDS011;24866;50.248;8.252;2023-01-09T00:36:36;1.80;;;0.85;;
37407;SDS011;24866;50.248;8.252;2023-01-09T00:39:06;2.67;;;1.52;;
37407;SDS011;24866;50.248;8.252;2023-01-09T00:41:36;1.33;;;0.65;;
37407;SDS011;24866;50.248;8.252;2023-01-09T00:44:09;2.28;;;0.98;;
37407;SDS011;24866;50.248;8.252;2023-01-09T00:46:43;1.20;;;0.68;;
37407;SDS011;24866;50.248;8.252;2023-01-09T00:49:18;1.60;;;0.80;;
37407;SDS011;24866;50.248;8.252;2023-01-09T00:51:51;2.38;;;0.90;;
37407;SDS011;24866;50.248;8.252;2023-01-09T00:54:23;1.52;;;0.80;;
37407;SDS011;24866;50.248;8.252;2023-01-09T00:56:54;2.83;;;0.80;;
37407;SDS011;24866;50.248;8.252;2023-01-09T00:59:25;3.67;;;1.07;;
37407;SDS011;24866;50.248;8.252;2023-01-09T01:01:56;1.40;;;0.73;;
37407;SDS011;24866;50.248;8.252;2023-01-09T01:04:26;1.20;;;0.60;;
37407;SDS011;24866;50.248;8.252;2023-01-09T01:07:15;1.45;;;0.85;;
37407;SDS011;24866;50.248;8.252;2023-01-09T01:10:03;2.45;;;1.02;;
37407;SDS011;24866;50.248;8.252;2023-01-09T01:12:35;2.45;;;1.10;;
37407;SDS011;24866;50.248;8.252;2023-01-09T01:15:06;2.55;;;0.90;;
37407;SDS011;24866;50.248;8.252;2023-01-09T01:17:38;1.85;;;0.82;;
37407;SDS011;24866;50.248;8.252;2023-01-09T01:20:09;2.20;;;0.90;;
37407;SDS011;24866;50.248;8.252;2023-01-09T01:25:13;0.70;;;0.35;;
37407;SDS011;24866;50.248;8.252;2023-01-09T01:27:44;0.60;;;0.30;;
37407;SDS011;24866;50.248;8.252;2023-01-09T01:30:14;0.90;;;0.50;;
37407;SDS011;24866;50.248;8.252;2023-01-09T01:32:45;0.55;;;0.32;;
37407;SDS011;24866;50.248;8.252;2023-01-09T01:35:15;0.95;;;0.20;;
37407;SDS011;24866;50.248;8.252;2023-01-09T01:37:47;0.52;;;0.10;;
37407;SDS011;24866;50.248;8.252;2023-01-09T01:40:17;0.20;;;0.10;;
37407;SDS011;24866;50.248;8.252;2023-01-09T01:42:48;0.68;;;0.20;;
37407;SDS011;24866;50.248;8.252;2023-01-09T01:45:19;0.80;;;0.20;;
37407;SDS011;24866;50.248;8.252;2023-01-09T01:47:51;0.40;;;0.10;;
37407;SDS011;24866;50.248;8.252;2023-01-09T01:50:26;0.20;;;0.10;;
37407;SDS011;24866;50.248;8.252;2023-01-09T01:53:06;0.20;;;0.10;;
37407;SDS011;24866;50.248;8.252;2023-01-09T01:55:42;0.52;;;0.10;;
37407;SDS011;24866;50.248;8.252;2023-01-09T01:58:13;0.28;;;0.10;;
37407;SDS011;24866;50.248;8.252;2023-01-09T02:00:44;0.10;;;0.05;;
37407;SDS011;24866;50.248;8.252;2023-01-09T02:03:16;0.00;;;0.00;;
37407;SDS011;24866;50.248;8.252;2023-01-09T02:05:50;0.03;;;0.00;;
37407;SDS011;24866;50.248;8.252;2023-01-09T02:08:21;0.52;;;0.00;;
37407;SDS011;24866;50.248;8.252;2023-01-09T02:10:51;0.22;;;0.00;;
37407;SDS011;24866;50.248;8.252;2023-01-09T02:13:22;0.25;;;0.10;;
37407;SDS011;24866;50.248;8.252;2023-01-09T02:15:59;0.00;;;0.00;;
37407;SDS011;24866;50.248;8.252;2023-01-09T02:18:48;0.17;;;0.00;;
37407;SDS011;24866;50.248;8.252;2023-01-09T02:21:22;0.10;;;0.00;;
37407;SDS011;24866;50.248;8.252;2023-01-09T02:24:08;0.22;;;0.10;;
37407;SDS011;24866;50.248;8.252;2023-01-09T02:33:09;1.20;;;0.10;;
37407;SDS011;24866;50.248;8.252;2023-01-09T02:35:58;0.20;;;0.20;;
37407;SDS011;24866;50.248;8.252;2023-01-09T02:38:39;0.85;;;0.05;;
37407;SDS011;24866;50.248;8.252;2023-01-09T02:41:17;0.20;;;0.08;;
37407;SDS011;24866;50.248;8.252;2023-01-09T02:46:40;0.60;;;0.00;;
37407;SDS011;24866;50.248;8.252;2023-01-09T02:49:12;1.38;;;0.10;;
37407;SDS011;24866;50.248;8.252;2023-01-09T02:51:49;0.65;;;0.00;;
37407;SDS011;24866;50.248;8.252;2023-01-09T02:54:23;0.28;;;0.10;;
37407;SDS011;24866;50.248;8.252;2023-01-09T02:57:04;0.32;;;0.10;;
37407;SDS011;24866;50.248;8.252;2023-01-09T02:59:49;1.02;;;0.10;;
37407;SDS011;24866;50.248;8.252;2023-01-09T03:02:34;0.22;;;0.03;;
37407;SDS011;24866;50.248;8.252;2023-01-09T03:05:18;0.90;;;0.10;;
37407;SDS011;24866;50.248;8.252;2023-01-09T03:07:54;0.20;;;0.00;;
37407;SDS011;24866;50.248;8.252;2023-01-09T03:10:30;0.43;;;0.10;;
37407;SDS011;24866;50.248;8.252;2023-01-09T03:13:03;0.03;;;0.00;;
37407;SDS011;24866;50.248;8.252;2023-01-09T03:15:37;1.23;;;0.10;;
37407;SDS011;24866;50.248;8.252;2023-01-09T03:18:09;0.20;;;0.15;;
37407;SDS011;24866;50.248;8.252;2023-01-09T03:20:43;0.17;;;0.10;;
37407;SDS011;24866;50.248;8.252;2023-01-09T03:23:15;0.10;;;0.00;;
37407;SDS011;24866;50.248;8.252;2023-01-09T03:25:45;0.10;;;0.08;;
37407;SDS011;24866;50.248;8.252;2023-01-09T03:28:17;0.98;;;0.10;;
37407;SDS011;24866;50.248;8.252;2023-01-09T03:30:53;0.20;;;0.00;;
37407;SDS011;24866;50.248;8.252;2023-01-09T03:33:23;0.40;;;0.10;;
37407;SDS011;24866;50.248;8.252;2023-01-09T03:35:55;0.38;;;0.10;;
37407;SDS011;24866;50.248;8.252;2023-01-09T03:38:25;0.20;;;0.10;;
37407;SDS011;24866;50.248;8.252;2023-01-09T03:40:54;0.30;;;0.08;;
37407;SDS011;24866;50.248;8.252;2023-01-09T03:43:24;0.30;;;0.10;;
37407;SDS011;24866;50.248;8.252;2023-01-09T03:45:55;0.50;;;0.10;;
37407;SDS011;24866;50.248;8.252;2023-01-09T03:48:25;0.38;;;0.20;;
37407;SDS011;24866;50.248;8.252;2023-01-09T03:50:56;0.10;;;0.00;;
37407;SDS011;24866;50.248;8.252;2023-01-09T03:53:27;0.20;;;0.10;;
37407;SDS011;24866;50.248;8.252;2023-01-09T03:55:57;0.22;;;0.10;;
37407;SDS011;24866;50.248;8.252;2023-01-09T03:58:29;0.70;;;0.10;;
37407;SDS011;24866;50.248;8.252;2023-01-09T04:00:59;0.98;;;0.20;;
37407;SDS011;24866;50.248;8.252;2023-01-09T04:03:31;0.20;;;0.08;;
37407;SDS011;24866;50.248;8.252;2023-01-09T04:06:03;0.20;;;0.10;;
37407;SDS011;24866;50.248;8.252;2023-01-09T04:08:33;0.03;;;0.00;;
37407;SDS011;24866;50.248;8.252;2023-01-09T04:11:03;0.75;;;0.10;;
37407;SDS011;24866;50.248;8.252;2023-01-09T04:13:33;0.60;;;0.15;;
37407;SDS011;24866;50.248;8.252;2023-01-09T04:16:03;0.88;;;0.13;;
37407;SDS011;24866;50.248;8.252;2023-01-09T04:18:33;0.65;;;0.10;;
37407;SDS011;24866;50.248;8.252;2023-01-09T04:21:04;0.20;;;0.10;;
37407;SDS011;24866;50.248;8.252;2023-01-09T04:23:34;0.63;;;0.10;;
37407;SDS011;24866;50.248;8.252;2023-01-09T04:26:04;0.90;;;0.20;;
37407;SDS011;24866;50.248;8.252;2023-01-09T04:28:35;0.50;;;0.10;;
37407;SDS011;24866;50.248;8.252;2023-01-09T04:31:04;1.42;;;0.00;;
37407;SDS011;24866;50.248;8.252;2023-01-09T04:33:34;0.57;;;0.10;;
37407;SDS011;24866;50.248;8.252;2023-01-09T04:36:06;0.60;;;0.17;;
37407;SDS011;24866;50.248;8.252;2023-01-09T04:38:37;0.28;;;0.10;;
37407;SDS011;24866;50.248;8.252;2023-01-09T04:41:06;1.45;;;0.20;;
37407;SDS011;24866;50.248;8.252;2023-01-09T04:43:36;1.83;;;0.13;;
37407;SDS011;24866;50.248;8.252;2023-01-09T04:46:09;0.70;;;0.28;;
37407;SDS011;24866;50.248;8.252;2023-01-09T04:48:39;0.88;;;0.20;;
37407;SDS011;24866;50.248;8.252;2023-01-09T04:51:10;1.52;;;0.20;;
37407;SDS011;24866;50.248;8.252;2023-01-09T04:53:40;0.50;;;0.10;;
37407;SDS011;24866;50.248;8.252;2023-01-09T04:56:10;0.17;;;0.10;;
37407;SDS011;24866;50.248;8.252;2023-01-09T04:58:40;1.73;;;0.20;;
37407;SDS011;24866;50.248;8.252;2023-01-09T05:01:10;0.70;;;0.10;;
37407;SDS011;24866;50.248;8.252;2023-01-09T05:03:39;0.82;;;0.17;;
37407;SDS011;24866;50.248;8.252;2023-01-09T05:06:11;0.50;;;0.20;;
37407;SDS011;24866;50.248;8.252;2023-01-09T05:08:41;0.77;;;0.10;;
37407;SDS011;24866;50.248;8.252;2023-01-09T05:11:11;0.50;;;0.20;;
37407;SDS011;24866;50.248;8.252;2023-01-09T05:13:41;2.05;;;0.43;;
37407;SDS011;24866;50.248;8.252;2023-01-09T05:16:11;2.47;;;0.38;;
37407;SDS011;24866;50.248;8.252;2023-01-09T05:18:41;2.05;;;0.50;;
37407;SDS011;24866;50.248;8.252;2023-01-09T05:21:12;1.42;;;0.20;;
37407;SDS011;24866;50.248;8.252;2023-01-09T05:23:43;1.30;;;0.20;;
37407;SDS011;24866;50.248;8.252;2023-01-09T05:26:13;0.10;;;0.10;;
37407;SDS011;24866;50.248;8.252;2023-01-09T05:28:42;0.95;;;0.20;;
37407;SDS011;24866;50.248;8.252;2023-01-09T05:31:13;0.80;;;0.20;;
37407;SDS011;24866;50.248;8.252;2023-01-09T05:33:43;1.00;;;0.20;;
37407;SDS011;24866;50.248;8.252;2023-01-09T05:36:14;0.85;;;0.17;;
37407;SDS011;24866;50.248;8.252;2023-01-09T05:38:44;0.80;;;0.25;;
37407;SDS011;24866;50.248;8.252;2023-01-09T05:41:16;0.52;;;0.15;;
37407;SDS011;24866;50.248;8.252;2023-01-09T05:43:45;0.95;;;0.30;;
37407;SDS011;24866;50.248;8.252;2023-01-09T05:46:15;2.30;;;0.90;;
37407;SDS011;24866;50.248;8.252;2023-01-09T05:48:45;1.25;;;0.47;;
37407;SDS011;24866;50.248;8.252;2023-01-09T05:51:17;0.45;;;0.30;;
37407;SDS011;24866;50.248;8.252;2023-01-09T05:53:47;2.63;;;0.40;;
37407;SDS011;24866;50.248;8.252;2023-01-09T05:56:17;1.23;;;0.45;;
37407;SDS011;24866;50.248;8.252;2023-01-09T05:58:47;1.38;;;0.45;;
37407;SDS011;24866;50.248;8.252;2023-01-09T06:01:17;2.05;;;0.50;;
37407;SDS011;24866;50.248;8.252;2023-01-09T06:03:47;1.85;;;0.22;;
37407;SDS011;24866;50.248;8.252;2023-01-09T06:06:18;1.98;;;0.30;;
37407;SDS011;24866;50.248;8.252;2023-01-09T06:08:48;2.78;;;0.38;;
37407;SDS011;24866;50.248;8.252;2023-01-09T06:11:18;1.77;;;0.28;;
37407;SDS011;24866;50.248;8.252;2023-01-09T06:13:48;1.27;;;0.45;;
37407;SDS011;24866;50.248;8.252;2023-01-09T06:16:18;4.13;;;0.60;;
37407;SDS011;24866;50.248;8.252;2023-01-09T06:18:48;1.90;;;0.38;;
37407;SDS011;24866;50.248;8.252;2023-01-09T06:21:20;1.20;;;0.40;;
37407;SDS011;24866;50.248;8.252;2023-01-09T06:23:50;1.30;;;0.40;;
37407;SDS011;24866;50.248;8.252;2023-01-09T06:26:20;2.58;;;0.60;;
37407;SDS011;24866;50.248;8.252;2023-01-09T06:28:50;2.63;;;0.68;;
37407;SDS011;24866;50.248;8.252;2023-01-09T06:33:52;2.03;;;0.60;;
37407;SDS011;24866;50.248;8.252;2023-01-09T06:36:24;2.40;;;0.50;;
37407;SDS011;24866;50.248;8.252;2023-01-09T06:38:54;2.88;;;0.57;;
37407;SDS011;24866;50.248;8.252;2023-01-09T06:41:24;2.38;;;0.68;;
37407;SDS011;24866;50.248;8.252;2023-01-09T06:43:54;4.15;;;0.63;;
37407;SDS011;24866;50.248;8.252;2023-01-09T06:46:24;4.68;;;0.68;;
37407;SDS011;24866;50.248;8.252;2023-01-09T06:48:54;5.65;;;1.00;;
37407;SDS011;24866;50.248;8.252;2023-01-09T06:51:25;6.97;;;0.90;;
37407;SDS011;24866;50.248;8.252;2023-01-09T06:53:55;8.98;;;3.83;;
37407;SDS011;24866;50.248;8.252;2023-01-09T06:56:25;8.02;;;2.65;;
37407;SDS011;24866;50.248;8.252;2023-01-09T06:58:55;5.60;;;0.82;;
37407;SDS011;24866;50.248;8.252;2023-01-09T07:01:25;3.80;;;0.77;;
37407;SDS011;24866;50.248;8.252;2023-01-09T07:03:55;4.53;;;1.17;;
37407;SDS011;24866;50.248;8.252;2023-01-09T07:06:26;3.95;;;1.75;;
37407;SDS011;24866;50.248;8.252;2023-01-09T07:08:56;7.50;;;0.93;;
37407;SDS011;24866;50.248;8.252;2023-01-09T07:11:26;6.05;;;1.00;;
37407;SDS011;24866;50.248;8.252;2023-01-09T07:13:56;5.05;;;1.02;;
37407;SDS011;24866;50.248;8.252;2023-01-09T07:16:27;5.25;;;0.90;;
37407;SDS011;24866;50.248;8.252;2023-01-09T07:18:56;4.85;;;1.15;;
37407;SDS011;24866;50.248;8.252;2023-01-09T07:21:28;5.38;;;1.67;;
37407;SDS011;24866;50.248;8.252;2023-01-09T07:23:58;4.30;;;1.20;;
37407;SDS011;24866;50.248;8.252;2023-01-09T07:26:28;2.60;;;0.85;;
37407;SDS011;24866;50.248;8.252;2023-01-09T07:28:58;3.30;;;1.10;;
37407;SDS011;24866;50.248;8.252;2023-01-09T07:31:28;4.28;;;0.77;;
37407;SDS011;24866;50.248;8.252;2023-01-09T07:33:58;3.55;;;0.90;;
37407;SDS011;24866;50.248;8.252;2023-01-09T07:36:29;4.07;;;1.02;;
37407;SDS011;24866;50.248;8.252;2023-01-09T07:38:59;2.25;;;0.32;;
37407;SDS011;24866;50.248;8.252;2023-01-09T07:41:29;3.72;;;0.82;;
37407;SDS011;24866;50.248;8.252;2023-01-09T07:43:59;2.25;;;0.35;;
37407;SDS011;24866;50.248;8.252;2023-01-09T07:46:29;2.25;;;0.40;;
37407;SDS011;24866;50.248;8.252;2023-01-09T07:48:59;1.65;;;0.40;;
37407;SDS011;24866;50.248;8.252;2023-01-09T07:51:31;2.90;;;0.98;;
37407;SDS011;24866;50.248;8.252;2023-01-09T07:54:01;1.75;;;0.82;;
37407;SDS011;24866;50.248;8.252;2023-01-09T07:56:31;3.72;;;0.43;;
37407;SDS011;24866;50.248;8.252;2023-01-09T07:59:01;1.33;;;0.50;;
37407;SDS011;24866;50.248;8.252;2023-01-09T08:01:30;1.35;;;0.30;;
37407;SDS011;24866;50.248;8.252;2023-01-09T08:04:00;1.88;;;0.30;;
37407;SDS011;24866;50.248;8.252;2023-01-09T08:06:32;2.63;;;0.25;;
37407;SDS011;24866;50.248;8.252;2023-01-09T08:09:02;0.90;;;0.20;;
37407;SDS011;24866;50.248;8.252;2023-01-09T08:11:32;1.13;;;0.20;;
37407;SDS011;24866;50.248;8.252;2023-01-09T08:14:02;0.73;;;0.30;;
37407;SDS011;24866;50.248;8.252;2023-01-09T08:16:32;4.22;;;0.70;;
37407;SDS011;24866;50.248;8.252;2023-01-09T08:19:02;1.38;;;0.40;;
37407;SDS011;24866;50.248;8.252;2023-01-09T08:21:34;1.33;;;0.50;;
37407;SDS011;24866;50.248;8.252;2023-01-09T08:24:04;1.63;;;0.43;;
37407;SDS011;24866;50.248;8.252;2023-01-09T08:26:34;1.60;;;0.30;;
37407;SDS011;24866;50.248;8.252;2023-01-09T08:29:04;2.72;;;0.47;;
37407;SDS011;24866;50.248;8.252;2023-01-09T08:31:34;1.33;;;0.30;;
37407;SDS011;24866;50.248;8.252;2023-01-09T08:34:04;6.82;;;1.67;;
37407;SDS011;24866;50.248;8.252;2023-01-09T08:36:35;1.42;;;0.30;;
37407;SDS011;24866;50.248;8.252;2023-01-09T08:39:06;3.33;;;0.52;;
37407;SDS011;24866;50.248;8.252;2023-01-09T08:41:37;0.98;;;0.30;;
37407;SDS011;24866;50.248;8.252;2023-01-09T08:44:24;2.03;;;0.40;;
37407;SDS011;24866;50.248;8.252;2023-01-09T08:47:12;2.83;;;0.40;;
37407;SDS011;24866;50.248;8.252;2023-01-09T08:49:44;1.55;;;0.30;;
37407;SDS011;24866;50.248;8.252;2023-01-09T08:52:15;2.42;;;0.22;;
37407;SDS011;24866;50.248;8.252;2023-01-09T08:54:45;1.02;;;0.20;;
37407;SDS011;24866;50.248;8.252;2023-01-09T08:57:15;1.80;;;0.40;;
37407;SDS011;24866;50.248;8.252;2023-01-09T08:59:45;0.82;;;0.20;;
37407;SDS011;24866;50.248;8.252;2023-01-09T09:02:15;1.80;;;0.30;;
37407;SDS011;24866;50.248;8.252;2023-01-09T09:04:46;1.00;;;0.38;;
37407;SDS011;24866;50.248;8.252;2023-01-09T09:07:21;2.15;;;0.38;;
37407;SDS011;24866;50.248;8.252;2023-01-09T09:09:53;3.13;;;0.20;;
37407;SDS011;24866;50.248;8.252;2023-01-09T09:12:24;2.13;;;0.30;;
37407;SDS011;24866;50.248;8.252;2023-01-09T09:14:54;1.40;;;0.73;;
37407;SDS011;24866;50.248;8.252;2023-01-09T09:17:43;1.83;;;0.43;;
37407;SDS011;24866;50.248;8.252;2023-01-09T09:20:13;0.65;;;0.30;;
37407;SDS011;24866;50.248;8.252;2023-01-09T09:22:45;2.85;;;0.60;;
37407;SDS011;24866;50.248;8.252;2023-01-09T09:25:16;4.00;;;0.40;;
37407;SDS011;24866;50.248;8.252;2023-01-09T09:27:46;2.40;;;0.60;;
37407;SDS011;24866;50.248;8.252;2023-01-09T09:30:18;1.80;;;0.30;;
37407;SDS011;24866;50.248;8.252;2023-01-09T09:32:49;1.42;;;0.20;;
37407;SDS011;24866;50.248;8.252;2023-01-09T09:35:19;1.88;;;0.40;;
37407;SDS011;24866;50.248;8.252;2023-01-09T09:37:55;0.95;;;0.20;;
37407;SDS011;24866;50.248;8.252;2023-01-09T09:40:30;3.35;;;0.50;;
37407;SDS011;24866;50.248;8.252;2023-01-09T09:43:23;2.67;;;0.70;;
37407;SDS011;24866;50.248;8.252;2023-01-09T09:46:27;2.67;;;0.60;;
37407;SDS011;24866;50.248;8.252;2023-01-09T09:49:09;3.90;;;0.60;;
37407;SDS011;24866;50.248;8.252;2023-01-09T09:51:48;6.10;;;1.40;;
37407;SDS011;24866;50.248;8.252;2023-01-09T09:54:26;2.28;;;0.47;;
37407;SDS011;24866;50.248;8.252;2023-01-09T09:57:02;2.97;;;0.40;;
37407;SDS011;24866;50.248;8.252;2023-01-09T09:59:33;3.03;;;0.90;;
37407;SDS011;24866;50.248;8.252;2023-01-09T10:02:11;4.53;;;1.15;;
37407;SDS011;24866;50.248;8.252;2023-01-09T10:04:55;5.00;;;0.98;;
37407;SDS011;24866;50.248;8.252;2023-01-09T10:07:32;2.33;;;0.80;;
37407;SDS011;24866;50.248;8.252;2023-01-09T10:10:13;2.67;;;0.50;;
37407;SDS011;24866;50.248;8.252;2023-01-09T10:12:49;2.63;;;1.10;;
37407;SDS011;24866;50.248;8.252;2023-01-09T10:15:29;2.03;;;0.30;;
37407;SDS011;24866;50.248;8.252;2023-01-09T10:18:10;3.75;;;1.05;;
37407;SDS011;24866;50.248;8.252;2023-01-09T10:20:53;1.98;;;0.88;;
37407;SDS011;24866;50.248;8.252;2023-01-09T10:26:24;2.05;;;0.60;;
37407;SDS011;24866;50.248;8.252;2023-01-09T10:29:17;1.27;;;0.63;;
37407;SDS011;24866;50.248;8.252;2023-01-09T10:32:15;0.47;;;0.20;;
37407;SDS011;24866;50.248;8.252;2023-01-09T10:34:55;1.65;;;0.40;;
37407;SDS011;24866;50.248;8.252;2023-01-09T10:37:33;1.42;;;0.70;;
37407;SDS011;24866;50.248;8.252;2023-01-09T10:40:13;1.35;;;0.40;;
37407;SDS011;24866;50.248;8.252;2023-01-09T10:42:50;1.15;;;0.40;;
37407;SDS011;24866;50.248;8.252;2023-01-09T10:45:23;3.00;;;0.60;;
37407;SDS011;24866;50.248;8.252;2023-01-09T10:47:58;3.15;;;0.77;;
37407;SDS011;24866;50.248;8.252;2023-01-09T10:50:34;2.42;;;0.40;;
37407;SDS011;24866;50.248;8.252;2023-01-09T10:53:13;3.90;;;0.40;;
37407;SDS011;24866;50.248;8.252;2023-01-09T10:55:50;1.33;;;0.38;;
37407;SDS011;24866;50.248;8.252;2023-01-09T10:58:26;0.43;;;0.30;;
37407;SDS011;24866;50.248;8.252;2023-01-09T11:00:56;1.55;;;0.40;;
37407;SDS011;24866;50.248;8.252;2023-01-09T11:03:28;2.17;;;0.43;;
37407;SDS011;24866;50.248;8.252;2023-01-09T11:05:58;1.10;;;0.25;;
37407;SDS011;24866;50.248;8.252;2023-01-09T11:08:32;3.22;;;0.75;;
37407;SDS011;24866;50.248;8.252;2023-01-09T11:11:09;5.30;;;0.65;;
37407;SDS011;24866;50.248;8.252;2023-01-09T11:13:42;3.83;;;0.40;;
37407;SDS011;24866;50.248;8.252;2023-01-09T11:16:16;1.15;;;0.40;;
37407;SDS011;24866;50.248;8.252;2023-01-09T11:18:50;2.47;;;0.80;;
37407;SDS011;24866;50.248;8.252;2023-01-09T11:21:27;1.50;;;0.40;;
37407;SDS011;24866;50.248;8.252;2023-01-09T11:27:16;1.30;;;0.43;;
37407;SDS011;24866;50.248;8.252;2023-01-09T11:30:14;1.88;;;0.30;;
37407;SDS011;24866;50.248;8.252;2023-01-09T11:32:48;1.23;;;0.73;;
37407;SDS011;24866;50.248;8.252;2023-01-09T11:35:27;3.83;;;1.35;;
37407;SDS011;24866;50.248;8.252;2023-01-09T11:38:01;0.90;;;0.20;;
37407;SDS011;24866;50.248;8.252;2023-01-09T11:40:38;1.48;;;0.20;;
37407;SDS011;24866;50.248;8.252;2023-01-09T11:43:16;1.73;;;0.52;;
37407;SDS011;24866;50.248;8.252;2023-01-09T11:45:50;1.35;;;0.60;;
37407;SDS011;24866;50.248;8.252;2023-01-09T11:48:27;1.38;;;0.60;;
37407;SDS011;24866;50.248;8.252;2023-01-09T11:51:03;3.90;;;1.02;;
37407;SDS011;24866;50.248;8.252;2023-01-09T11:53:47;2.63;;;0.40;;
37407;SDS011;24866;50.248;8.252;2023-01-09T11:56:23;3.78;;;0.50;;
37407;SDS011;24866;50.248;8.252;2023-01-09T11:58:53;2.90;;;0.38;;
37407;SDS011;24866;50.248;8.252;2023-01-09T12:01:29;1.67;;;0.80;;
37407;SDS011;24866;50.248;8.252;2023-01-09T12:04:22;2.03;;;0.28;;
37407;SDS011;24866;50.248;8.252;2023-01-09T12:07:05;0.73;;;0.47;;
37407;SDS011;24866;50.248;8.252;2023-01-09T12:09:57;4.65;;;0.82;;
37407;SDS011;24866;50.248;8.252;2023-01-09T12:12:35;1.13;;;0.30;;
37407;SDS011;24866;50.248;8.252;2023-01-09T12:15:22;2.45;;;0.60;;
37407;SDS011;24866;50.248;8.252;2023-01-09T12:20:56;1.42;;;0.52;;
37407;SDS011;24866;50.248;8.252;2023-01-09T12:23:38;1.63;;;0.47;;
37407;SDS011;24866;50.248;8.252;2023-01-09T12:26:20;2.33;;;0.35;;
37407;SDS011;24866;50.248;8.252;2023-01-09T12:29:11;1.35;;;0.30;;
37407;SDS011;24866;50.248;8.252;2023-01-09T12:32:12;1.80;;;0.50;;
37407;SDS011;24866;50.248;8.252;2023-01-09T12:34:59;1.80;;;0.40;;
37407;SDS011;24866;50.248;8.252;2023-01-09T12:37:48;2.25;;;0.43;;
37407;SDS011;24866;50.248;8.252;2023-01-09T12:40:44;2.35;;;0.20;;
37407;SDS011;24866;50.248;8.252;2023-01-09T12:43:36;1.60;;;0.25;;
37407;SDS011;24866;50.248;8.252;2023-01-09T12:46:13;1.55;;;0.40;;
37407;SDS011;24866;50.248;8.252;2023-01-09T12:48:53;2.38;;;0.30;;
37407;SDS011;24866;50.248;8.252;2023-01-09T12:51:37;0.82;;;0.20;;
37407;SDS011;24866;50.248;8.252;2023-01-09T12:54:12;3.00;;;0.47;;
37407;SDS011;24866;50.248;8.252;2023-01-09T12:56:48;0.80;;;0.20;;
37407;SDS011;24866;50.248;8.252;2023-01-09T12:59:24;3.33;;;0.68;;
37407;SDS011;24866;50.248;8.252;2023-01-09T13:02:00;3.40;;;0.63;;
37407;SDS011;24866;50.248;8.252;2023-01-09T13:04:36;4.63;;;1.15;;
37407;SDS011;24866;50.248;8.252;2023-01-09T13:07:15;1.40;;;0.20;;
37407;SDS011;24866;50.248;8.252;2023-01-09T13:09:49;0.82;;;0.28;;
37407;SDS011;24866;50.248;8.252;2023-01-09T13:12:24;1.75;;;0.55;;
37407;SDS011;24866;50.248;8.252;2023-01-09T13:15:02;1.83;;;0.20;;
37407;SDS011;24866;50.248;8.252;2023-01-09T13:17:35;0.45;;;0.10;;
37407;SDS011;24866;50.248;8.252;2023-01-09T13:20:15;1.50;;;0.15;;
37407;SDS011;24866;50.248;8.252;2023-01-09T13:22:50;1.58;;;0.25;;
37407;SDS011;24866;50.248;8.252;2023-01-09T13:28:15;1.77;;;0.28;;
37407;SDS011;24866;50.248;8.252;2023-01-09T13:36:23;1.27;;;0.50;;
37407;SDS011;24866;50.248;8.252;2023-01-09T13:38:57;1.55;;;0.20;;
37407;SDS011;24866;50.248;8.252;2023-01-09T13:41:29;0.73;;;0.25;;
37407;SDS011;24866;50.248;8.252;2023-01-09T13:44:21;0.60;;;0.10;;
37407;SDS011;24866;50.248;8.252;2023-01-09T13:46:56;1.60;;;0.50;;
37407;SDS011;24866;50.248;8.252;2023-01-09T13:49:32;0.32;;;0.10;;
37407;SDS011;24866;50.248;8.252;2023-01-09T13:52:30;1.50;;;0.30;;
37407;SDS011;24866;50.248;8.252;2023-01-09T14:00:58;2.22;;;0.50;;
37407;SDS011;24866;50.248;8.252;2023-01-09T14:03:32;1.17;;;0.35;;
37407;SDS011;24866;50.248;8.252;2023-01-09T14:06:14;0.60;;;0.28;;
37407;SDS011;24866;50.248;8.252;2023-01-09T14:08:47;2.17;;;0.40;;
37407;SDS011;24866;50.248;8.252;2023-01-09T14:11:34;0.45;;;0.20;;
37407;SDS011;24866;50.248;8.252;2023-01-09T14:14:15;0.75;;;0.22;;
37407;SDS011;24866;50.248;8.252;2023-01-09T14:16:52;1.40;;;0.30;;
37407;SDS011;24866;50.248;8.252;2023-01-09T14:19:25;2.30;;;0.57;;
37407;SDS011;24866;50.248;8.252;2023-01-09T14:22:03;1.80;;;0.38;;
37407;SDS011;24866;50.248;8.252;2023-01-09T14:24:38;1.40;;;0.52;;
37407;SDS011;24866;50.248;8.252;2023-01-09T14:30:28;0.63;;;0.15;;
37407;SDS011;24866;50.248;8.252;2023-01-09T14:33:00;1.90;;;0.40;;
37407;SDS011;24866;50.248;8.252;2023-01-09T14:35:39;0.45;;;0.28;;
37407;SDS011;24866;50.248;8.252;2023-01-09T14:38:16;1.33;;;0.32;;
37407;SDS011;24866;50.248;8.252;2023-01-09T14:40:55;1.17;;;0.20;;
37407;SDS011;24866;50.248;8.252;2023-01-09T14:43:37;2.28;;;0.75;;
37407;SDS011;24866;50.248;8.252;2023-01-09T14:46:14;1.08;;;0.30;;
37407;SDS011;24866;50.248;8.252;2023-01-09T14:48:56;1.20;;;0.30;;
37407;SDS011;24866;50.248;8.252;2023-01-09T14:51:30;4.38;;;0.43;;
37407;SDS011;24866;50.248;8.252;2023-01-09T14:54:08;3.08;;;0.30;;
37407;SDS011;24866;50.248;8.252;2023-01-09T14:56:49;2.03;;;0.20;;
37407;SDS011;24866;50.248;8.252;2023-01-09T14:59:19;1.83;;;0.10;;
37407;SDS011;24866;50.248;8.252;2023-01-09T15:01:50;2.65;;;0.43;;
37407;SDS011;24866;50.248;8.252;2023-01-09T15:04:27;3.90;;;0.30;;
37407;SDS011;24866;50.248;8.252;2023-01-09T15:07:02;0.55;;;0.28;;
37407;SDS011;24866;50.248;8.252;2023-01-09T15:09:35;0.88;;;0.30;;
37407;SDS011;24866;50.248;8.252;2023-01-09T15:12:14;0.43;;;0.20;;
37407;SDS011;24866;50.248;8.252;2023-01-09T15:14:49;1.20;;;0.22;;
37407;SDS011;24866;50.248;8.252;2023-01-09T15:17:23;2.05;;;0.80;;
37407;SDS011;24866;50.248;8.252;2023-01-09T15:19:57;3.40;;;0.40;;
37407;SDS011;24866;50.248;8.252;2023-01-09T15:22:30;1.73;;;0.30;;
37407;SDS011;24866;50.248;8.252;2023-01-09T15:25:11;1.25;;;0.40;;
37407;SDS011;24866;50.248;8.252;2023-01-09T15:27:50;0.98;;;0.35;;
37407;SDS011;24866;50.248;8.252;2023-01-09T15:30:24;2.50;;;1.08;;
37407;SDS011;24866;50.248;8.252;2023-01-09T15:33:03;2.45;;;0.50;;
37407;SDS011;24866;50.248;8.252;2023-01-09T15:35:39;4.43;;;1.88;;
37407;SDS011;24866;50.248;8.252;2023-01-09T15:38:10;3.53;;;1.13;;
37407;SDS011;24866;50.248;8.252;2023-01-09T15:40:42;3.60;;;0.93;;
37407;SDS011;24866;50.248;8.252;2023-01-09T15:43:20;1.33;;;0.40;;
37407;SDS011;24866;50.248;8.252;2023-01-09T15:45:50;1.73;;;0.63;;
37407;SDS011;24866;50.248;8.252;2023-01-09T15:48:24;1.33;;;0.57;;
37407;SDS011;24866;50.248;8.252;2023-01-09T15:50:56;2.63;;;0.50;;
37407;SDS011;24866;50.248;8.252;2023-01-09T15:53:29;1.08;;;0.43;;
37407;SDS011;24866;50.248;8.252;2023-01-09T15:56:01;1.80;;;0.65;;
37407;SDS011;24866;50.248;8.252;2023-01-09T15:58:33;2.25;;;0.50;;
37407;SDS011;24866;50.248;8.252;2023-01-09T16:01:05;1.90;;;0.52;;
37407;SDS011;24866;50.248;8.252;2023-01-09T16:03:47;0.90;;;0.38;;
37407;SDS011;24866;50.248;8.252;2023-01-09T16:06:18;3.35;;;0.30;;
37407;SDS011;24866;50.248;8.252;2023-01-09T16:08:52;1.40;;;0.20;;
37407;SDS011;24866;50.248;8.252;2023-01-09T16:11:26;1.55;;;0.45;;